»·PEaware :: UAL211 KDEN-KLAX

UAL211 :: KDEN-KLAX

FLIGHT INFORMATION

Flight Status: Arrived
Operator:
United Airlines
More flights by this operator :: More flights under this callsign
Pilot: Jose A. (18565)
Aircraft: BOEING 777-200
(B772)
More flights by this aircraft type
Origin: KDEN Denver Intl
United States
Destination: KLAX Los Angeles Intl
United States
More flights between these airports :: More routes between these airports
Route: +BAYLR4 TEHRU JASSE Q90 DNERO ANJLL4
File this flight plan on PilotEdge
Remarks:
Altitude:
(Current/Filed)
38,000ft
Speed:
(Current/Filed)
480kts
Departed: 13-Aug-19 07:59 AM
Arrived: 13-Aug-19 09:53 AM
Distance/Time
Traveled:
747nm/1:53
Distance/Time
To Go:
Arrived

Flight Plot

Page will automatically refresh every two minutes.

Flight plan parsing failed; only flown route is shown


Map Options




Map Legend


Flown Route
Filed Route
Departure Airport
Arrival Airport
Navaid (VOR, NDB)
Fix

Horizontal Profiles

Position Reports

Time Latitude Longitude Heading Altitude Ground
Speed
13-Aug-19 07:29 39.858192 -104.675480 0 5444ft 0kts
13-Aug-19 07:30 39.858192 -104.675480 0 5444ft 0kts
13-Aug-19 07:31 39.858192 -104.675480 0 5444ft 0kts
13-Aug-19 07:32 39.858192 -104.675480 0 5444ft 0kts
13-Aug-19 07:33 39.858192 -104.675480 0 5444ft 0kts
13-Aug-19 07:34 39.858192 -104.675480 0 5444ft 0kts
13-Aug-19 07:35 39.858192 -104.675480 0 5444ft 0kts
13-Aug-19 07:36 39.858192 -104.675480 0 5444ft 0kts
13-Aug-19 07:37 39.858192 -104.675480 0 5444ft 0kts
13-Aug-19 07:38 39.858192 -104.675480 0 5444ft 0kts
13-Aug-19 07:39 39.858192 -104.675480 0 5444ft 0kts
13-Aug-19 07:40 39.858192 -104.675480 0 5444ft 0kts
13-Aug-19 07:41 39.858192 -104.675480 0 5444ft 0kts
13-Aug-19 07:42 39.858192 -104.675480 0 5444ft 0kts
13-Aug-19 07:43 39.858192 -104.675480 0 5444ft 0kts
13-Aug-19 07:44 39.858192 -104.675480 0 5444ft 0kts
13-Aug-19 07:45 39.858162 -104.675480 359 5444ft 1kts
13-Aug-19 07:46 39.857597 -104.675340 315 5444ft 2kts
13-Aug-19 07:47 39.857398 -104.674761 270 5444ft 0kts
13-Aug-19 07:48 39.857398 -104.674761 270 5444ft 0kts
13-Aug-19 07:49 39.857398 -104.674761 270 5444ft 0kts
13-Aug-19 07:50 39.857409 -104.676039 269 5444ft 10kts
13-Aug-19 07:51 39.856761 -104.679896 251 5444ft 10kts
13-Aug-19 07:52 39.856899 -104.683246 262 5444ft 4kts
13-Aug-19 07:53 39.853701 -104.684025 180 5444ft 22kts
13-Aug-19 07:54 39.845580 -104.684112 180 5444ft 32kts
13-Aug-19 07:55 39.842194 -104.684168 181 5444ft 12kts
13-Aug-19 07:56 39.841999 -104.684173 180 5444ft 0kts
13-Aug-19 07:57 39.840674 -104.684527 262 5444ft 6kts
13-Aug-19 07:58 39.841016 -104.715356 272 5712ft 229kts
13-Aug-19 07:59 39.835930 -104.804403 258 10880ft 240kts
13-Aug-19 08:00 39.796470 -104.905531 256 11256ft 371kts
13-Aug-19 08:01 39.764517 -105.034775 247 15743ft 385kts
13-Aug-19 08:02 39.717361 -105.164432 245 19365ft 407kts
13-Aug-19 08:03 39.668767 -105.300306 245 22725ft 425kts
13-Aug-19 08:04 39.617786 -105.441931 245 25776ft 442kts
13-Aug-19 08:05 39.564125 -105.588973 245 28761ft 458kts
13-Aug-19 08:06 39.517255 -105.744422 251 31454ft 470kts
13-Aug-19 08:07 39.475043 -105.901800 250 34652ft 456kts
13-Aug-19 08:08 39.433771 -106.048610 250 37599ft 435kts
13-Aug-19 08:09 39.392261 -106.195640 249 38788ft 442kts
13-Aug-19 08:10 39.350624 -106.342435 250 38699ft 429kts
13-Aug-19 08:11 39.309784 -106.487574 249 38642ft 424kts
13-Aug-19 08:12 39.269082 -106.628799 249 38604ft 440kts
13-Aug-19 08:13 39.215056 -106.769064 236 38538ft 432kts
13-Aug-19 08:14 39.143158 -106.892869 234 38523ft 432kts
13-Aug-19 08:15 39.070705 -107.016746 234 38546ft 432kts
13-Aug-19 08:16 38.998743 -107.140750 234 38567ft 433kts
13-Aug-19 08:17 38.926761 -107.264594 234 38569ft 433kts
13-Aug-19 08:18 38.854458 -107.387995 234 38555ft 433kts
13-Aug-19 08:19 38.781861 -107.511327 234 38507ft 433kts
13-Aug-19 08:20 38.709390 -107.633954 233 38437ft 433kts
13-Aug-19 08:21 38.636445 -107.756918 233 38410ft 433kts
13-Aug-19 08:22 38.563471 -107.879460 233 38398ft 433kts
13-Aug-19 08:23 38.490519 -108.001509 233 38399ft 432kts
13-Aug-19 08:24 38.417341 -108.123479 233 38418ft 433kts
13-Aug-19 08:25 38.344029 -108.245232 233 38435ft 432kts
13-Aug-19 08:26 38.270459 -108.366912 233 38434ft 433kts
13-Aug-19 08:27 38.197033 -108.487933 233 38424ft 434kts
13-Aug-19 08:28 38.123195 -108.609167 233 38424ft 433kts
13-Aug-19 08:29 38.049225 -108.730185 232 38414ft 434kts
13-Aug-19 08:30 37.974931 -108.851273 232 38408ft 435kts
13-Aug-19 08:31 37.900657 -108.971905 232 38404ft 434kts
13-Aug-19 08:32 37.826373 -109.092071 232 38410ft 434kts
13-Aug-19 08:33 37.751778 -109.212319 232 38420ft 435kts
13-Aug-19 08:34 37.676848 -109.332691 232 38430ft 435kts
13-Aug-19 08:35 37.601902 -109.452607 232 38439ft 436kts
13-Aug-19 08:36 37.526691 -109.572536 232 38438ft 436kts
13-Aug-19 08:37 37.451457 -109.692064 232 38431ft 436kts
13-Aug-19 08:38 37.376127 -109.811321 232 38428ft 436kts
13-Aug-19 08:39 37.300640 -109.930383 232 38420ft 436kts
13-Aug-19 08:40 37.224744 -110.049671 231 38415ft 436kts
13-Aug-19 08:41 37.148965 -110.168342 231 38405ft 437kts
13-Aug-19 08:42 37.072973 -110.286937 231 38391ft 435kts
13-Aug-19 08:43 36.997010 -110.405047 231 38375ft 436kts
13-Aug-19 08:44 36.920870 -110.523028 231 38358ft 435kts
13-Aug-19 08:45 36.844833 -110.640455 231 38334ft 435kts
13-Aug-19 08:46 36.768604 -110.757727 231 38314ft 435kts
13-Aug-19 08:47 36.692264 -110.874779 231 38305ft 435kts
13-Aug-19 08:48 36.615978 -110.991343 231 38301ft 435kts
13-Aug-19 08:49 36.539592 -111.107660 231 38303ft 433kts
13-Aug-19 08:50 36.462995 -111.223900 231 38310ft 433kts
13-Aug-19 08:51 36.386510 -111.339565 231 38325ft 433kts
13-Aug-19 08:52 36.310135 -111.454681 230 38346ft 432kts
13-Aug-19 08:53 36.233897 -111.569724 230 38380ft 431kts
13-Aug-19 08:54 36.157165 -111.684369 230 38401ft 431kts
13-Aug-19 08:55 36.081144 -111.798717 234 38433ft 429kts
13-Aug-19 08:56 36.031117 -111.932419 247 38449ft 431kts
13-Aug-19 08:57 35.987820 -112.070825 246 38457ft 431kts
13-Aug-19 08:58 35.943482 -112.208301 246 38459ft 431kts
13-Aug-19 08:59 35.899744 -112.345422 246 38457ft 431kts
13-Aug-19 09:01 35.855231 -112.482770 246 38450ft 431kts
13-Aug-19 09:02 35.810447 -112.620083 246 38442ft 432kts
13-Aug-19 09:03 35.765528 -112.757161 246 38427ft 432kts
13-Aug-19 09:04 35.720536 -112.894422 246 38411ft 433kts
13-Aug-19 09:05 35.675173 -113.031784 246 38388ft 433kts
13-Aug-19 09:06 35.629407 -113.168941 246 38350ft 435kts
13-Aug-19 09:07 35.583354 -113.306468 245 38318ft 435kts
13-Aug-19 09:08 35.536925 -113.444105 245 38273ft 436kts
13-Aug-19 09:09 35.490366 -113.581488 245 38244ft 436kts
13-Aug-19 09:10 35.444053 -113.719573 246 38225ft 437kts
13-Aug-19 09:11 35.397423 -113.857233 245 38209ft 437kts
13-Aug-19 09:12 35.350630 -113.994346 245 38200ft 437kts
13-Aug-19 09:13 35.303461 -114.131907 245 38183ft 439kts
13-Aug-19 09:14 35.255969 -114.269973 246 38123ft 439kts
13-Aug-19 09:15 35.208518 -114.407817 245 38044ft 439kts
13-Aug-19 09:16 35.160580 -114.545155 245 38012ft 440kts
13-Aug-19 09:17 35.112760 -114.682900 245 38011ft 440kts
13-Aug-19 09:18 35.064664 -114.820716 245 38017ft 441kts
13-Aug-19 09:19 35.014379 -114.956905 241 38027ft 441kts
13-Aug-19 09:19 34.965094 -115.066698 240 38035ft 442kts
13-Aug-19 09:20 34.907875 -115.198911 241 38038ft 441kts
13-Aug-19 09:22 34.840359 -115.353186 240 38054ft 443kts
13-Aug-19 09:22 34.792135 -115.463089 241 38069ft 442kts
13-Aug-19 09:23 34.741993 -115.599763 245 38094ft 442kts
13-Aug-19 09:25 34.683658 -115.758263 244 38112ft 441kts
13-Aug-19 09:25 34.641623 -115.871314 244 37962ft 439kts
13-Aug-19 09:26 34.592458 -116.004192 244 35809ft 431kts
13-Aug-19 09:27 34.543176 -116.137365 245 33358ft 432kts
13-Aug-19 09:28 34.494684 -116.269079 244 31384ft 422kts
13-Aug-19 09:29 34.446525 -116.397804 244 29432ft 422kts
13-Aug-19 09:30 34.397667 -116.525153 242 27380ft 424kts
13-Aug-19 09:31 34.345456 -116.650373 242 25649ft 403kts
13-Aug-19 09:32 34.297775 -116.768758 242 24100ft 385kts
13-Aug-19 09:33 34.251845 -116.882421 242 22328ft 377kts
13-Aug-19 09:34 34.207079 -116.996356 247 20395ft 373kts
13-Aug-19 09:35 34.175888 -117.113607 250 18270ft 359kts
13-Aug-19 09:36 34.145613 -117.224416 250 16329ft 344kts
13-Aug-19 09:37 34.115495 -117.333420 249 14590ft 340kts
13-Aug-19 09:38 34.089562 -117.433105 252 13015ft 342kts
13-Aug-19 09:39 34.060169 -117.538674 243 12004ft 313kts
13-Aug-19 09:40 34.026476 -117.632618 244 10972ft 291kts
13-Aug-19 09:41 34.006369 -117.725228 256 9517ft 282kts
13-Aug-19 09:42 33.996310 -117.802032 260 8328ft 257kts
13-Aug-19 09:43 33.987824 -117.886142 260 7015ft 252kts
13-Aug-19 09:44 33.979859 -117.964661 260 6027ft 225kts
13-Aug-19 09:45 33.972300 -118.038816 261 5108ft 216kts
13-Aug-19 09:46 33.965612 -118.104272 261 4293ft 188kts
13-Aug-19 09:47 33.959437 -118.165017 261 3505ft 172kts
13-Aug-19 09:48 33.953943 -118.219493 261 2736ft 156kts
13-Aug-19 09:49 33.948793 -118.270219 262 1940ft 151kts
13-Aug-19 09:50 33.942883 -118.321186 261 1588ft 164kts
13-Aug-19 09:51 33.938128 -118.373518 264 331ft 145kts
13-Aug-19 09:52 33.935935 -118.402802 291 140ft 14kts
13-Aug-19 09:53 33.936037 -118.403117 289 140ft 0kts
13-Aug-19 09:54 33.936188 -118.404873 265 140ft 11kts
13-Aug-19 09:55 33.936633 -118.409034 344 140ft 9kts
13-Aug-19 09:56 33.937993 -118.409223 349 140ft 10kts
13-Aug-19 09:57 33.938986 -118.405924 82 140ft 5kts
13-Aug-19 09:58 33.939661 -118.399140 83 140ft 15kts
13-Aug-19 09:59 33.940870 -118.398843 309 140ft 3kts
13-Aug-19 10:00 33.941016 -118.399071 307 140ft 0kts
13-Aug-19 10:01 33.941016 -118.399071 307 140ft 0kts
13-Aug-19 10:02 33.941016 -118.399071 307 140ft 0kts

Navigation Log

Ident Type
Flight plan parsing failed, navigation log unavailable